createdAt,value
2017-12-16T00:00:35.299Z,99.99
2017-12-16T00:01:35.203Z,99.99
2017-12-16T00:02:35.215Z,99.99
2017-12-16T00:03:35.139Z,99.99
2017-12-16T00:04:35.126Z,99.99
2017-12-16T00:05:35.082Z,99.99
2017-12-16T00:06:35.135Z,99.99
2017-12-16T00:07:35.010Z,99.99
2017-12-16T00:08:35.046Z,99.99
2017-12-16T00:09:34.948Z,99.99
2017-12-16T00:10:34.956Z,99.99
2017-12-16T00:11:34.875Z,99.99
2017-12-16T00:12:34.868Z,99.99
2017-12-16T00:13:34.812Z,99.99
2017-12-16T00:14:34.886Z,99.99
2017-12-16T00:15:34.747Z,99.99
2017-12-16T00:16:34.794Z,99.99
2017-12-16T00:17:34.682Z,99.99
2017-12-16T00:18:34.765Z,99.99
2017-12-16T00:19:34.618Z,99.99
2017-12-16T00:20:34.616Z,99.99
2017-12-16T00:21:34.554Z,99.99
2017-12-16T00:22:34.631Z,99.99
2017-12-16T00:23:34.491Z,99.99
2017-12-16T00:24:34.540Z,99.99
2017-12-16T00:25:34.423Z,99.99
2017-12-16T00:26:34.454Z,99.99
2017-12-16T00:27:34.355Z,99.99
2017-12-16T00:28:34.368Z,99.99
2017-12-16T00:29:34.294Z,99.99
2017-12-16T00:30:34.279Z,99.99
2017-12-16T00:31:34.229Z,99.99
2017-12-16T00:32:34.293Z,99.99
2017-12-16T00:33:34.175Z,99.99
2017-12-16T00:34:34.206Z,99.99
2017-12-16T00:35:34.099Z,99.99
2017-12-16T00:36:34.116Z,99.99
2017-12-16T00:37:34.035Z,99.99
2017-12-16T00:38:34.051Z,99.99
2017-12-16T00:39:33.966Z,99.99
2017-12-16T00:40:34.054Z,99.99
2017-12-16T00:41:33.903Z,99.99
2017-12-16T00:42:33.953Z,99.99
2017-12-16T00:43:33.841Z,99.99
2017-12-16T00:44:33.863Z,99.99
2017-12-16T00:45:33.771Z,99.99
2017-12-16T00:46:33.776Z,99.99
2017-12-16T00:47:33.710Z,99.99
2017-12-16T00:48:33.728Z,99.99
2017-12-16T00:49:33.641Z,99.99
2017-12-16T00:50:33.701Z,99.99
2017-12-16T00:51:33.577Z,99.99
2017-12-16T00:52:33.612Z,99.99
2017-12-16T00:53:33.516Z,99.99
2017-12-16T00:54:33.526Z,99.99
2017-12-16T00:55:33.451Z,99.99
2017-12-16T00:56:33.434Z,99.99
2017-12-16T00:57:33.383Z,99.99
2017-12-16T00:58:33.447Z,99.99
2017-12-16T00:59:33.321Z,99.99
2017-12-16T01:00:33.360Z,99.99
2017-12-16T01:01:33.254Z,99.99
2017-12-16T01:02:33.273Z,99.99
2017-12-16T01:03:33.192Z,99.99
2017-12-16T01:04:33.183Z,99.99
2017-12-16T01:05:33.125Z,99.99
2017-12-16T01:06:33.197Z,99.99
2017-12-16T01:07:33.060Z,99.99
2017-12-16T01:08:33.107Z,99.99
2017-12-16T01:09:32.996Z,99.99
2017-12-16T01:10:33.022Z,99.99
2017-12-16T01:11:32.931Z,99.99
2017-12-16T01:12:32.929Z,99.99
2017-12-16T01:13:32.863Z,99.99
2017-12-16T01:14:32.942Z,99.99
2017-12-16T01:15:32.802Z,99.99
2017-12-16T01:16:32.856Z,99.99
2017-12-16T01:17:32.739Z,99.99
2017-12-16T01:18:32.767Z,99.99
2017-12-16T01:19:32.669Z,99.99
2017-12-16T01:20:32.679Z,99.99
2017-12-16T01:21:32.604Z,99.99
2017-12-16T01:22:32.585Z,99.99
2017-12-16T01:23:32.539Z,99.99
2017-12-16T01:24:32.602Z,99.99
2017-12-16T01:25:32.474Z,99.99
2017-12-16T01:26:32.518Z,99.99
2017-12-16T01:27:32.415Z,99.99
2017-12-16T01:28:32.427Z,99.99
2017-12-16T01:29:32.346Z,99.99
2017-12-16T01:30:32.336Z,99.99
2017-12-16T01:31:32.285Z,99.99
2017-12-16T01:32:32.351Z,99.99
2017-12-16T01:33:32.236Z,99.99
2017-12-16T01:34:32.264Z,99.99
2017-12-16T01:35:32.159Z,99.99
2017-12-16T01:36:32.173Z,99.99
2017-12-16T01:37:32.093Z,99.99
2017-12-16T01:38:32.084Z,99.99
2017-12-16T01:39:32.024Z,99.99
2017-12-16T01:40:32.099Z,99.99
2017-12-16T01:41:31.962Z,99.99
2017-12-16T01:42:32.010Z,99.99
2017-12-16T01:43:31.894Z,99.99
2017-12-16T01:44:31.927Z,99.99
2017-12-16T01:45:31.849Z,99.99
2017-12-16T01:46:31.830Z,99.99
2017-12-16T01:47:31.769Z,99.99
2017-12-16T01:48:31.844Z,99.99
2017-12-16T01:49:31.704Z,99.99
2017-12-16T01:50:31.998Z,99.99
2017-12-16T01:51:31.642Z,99.99
2017-12-16T01:52:31.675Z,99.99
2017-12-16T01:53:31.570Z,99.99
2017-12-16T01:54:31.579Z,99.99
2017-12-16T01:55:31.505Z,99.99
2017-12-16T01:56:31.498Z,99.99
2017-12-16T01:57:31.449Z,99.99
2017-12-16T01:58:31.510Z,99.99
2017-12-16T01:59:31.387Z,99.99
2017-12-16T02:00:31.420Z,99.99
2017-12-16T02:01:31.315Z,99.99
2017-12-16T02:02:31.331Z,99.99
2017-12-16T02:03:31.252Z,99.99
2017-12-16T02:04:31.242Z,99.99
2017-12-16T02:05:31.188Z,99.99
2017-12-16T02:06:31.257Z,99.99
2017-12-16T02:07:31.123Z,99.99
2017-12-16T02:08:31.165Z,99.99
2017-12-16T02:09:31.060Z,99.99
2017-12-16T02:10:31.077Z,99.99
2017-12-16T02:11:30.995Z,99.99
2017-12-16T02:12:30.988Z,99.99
2017-12-16T02:13:30.931Z,99.99
2017-12-16T02:14:31.003Z,99.99
2017-12-16T02:15:30.868Z,99.99
2017-12-16T02:16:30.918Z,99.99
2017-12-16T02:17:30.801Z,99.99
2017-12-16T02:18:30.829Z,99.99
2017-12-16T02:19:30.740Z,99.99
2017-12-16T02:20:30.750Z,99.99
2017-12-16T02:21:30.673Z,99.99
2017-12-16T02:22:30.761Z,99.99
2017-12-16T02:23:30.610Z,99.99
2017-12-16T02:24:30.663Z,99.99
2017-12-16T02:25:30.539Z,99.99
2017-12-16T02:26:30.577Z,99.99
2017-12-16T02:27:30.482Z,99.99
2017-12-16T02:28:30.485Z,99.99
2017-12-16T02:29:30.415Z,99.99
2017-12-16T02:30:30.400Z,99.99
2017-12-16T02:31:30.352Z,99.99
2017-12-16T02:32:30.412Z,99.99
2017-12-16T02:33:30.288Z,99.99
2017-12-16T02:34:30.324Z,99.99
2017-12-16T02:35:30.220Z,99.99
2017-12-16T02:36:30.233Z,99.99
2017-12-16T02:37:30.160Z,99.99
2017-12-16T02:38:30.151Z,99.99
2017-12-16T02:39:30.095Z,99.99
2017-12-16T02:40:30.166Z,99.99
2017-12-16T02:41:30.028Z,99.99
2017-12-16T02:42:30.076Z,99.99
2017-12-16T02:43:29.964Z,99.99
2017-12-16T02:44:29.992Z,99.99
2017-12-16T02:45:29.894Z,99.99
2017-12-16T02:46:29.901Z,99.99
2017-12-16T02:47:29.835Z,99.99
2017-12-16T02:48:29.914Z,99.99
2017-12-16T02:49:29.778Z,99.99
2017-12-16T02:50:29.825Z,99.99
2017-12-16T02:51:29.707Z,99.99
2017-12-16T02:52:29.737Z,99.99
2017-12-16T02:53:29.639Z,99.99
2017-12-16T02:54:29.646Z,99.99
2017-12-16T02:55:29.576Z,99.99
2017-12-16T02:56:29.557Z,99.99
2017-12-16T02:57:29.508Z,99.99
2017-12-16T02:58:29.571Z,99.99
2017-12-16T02:59:29.446Z,99.99
2017-12-16T03:00:29.481Z,99.99
2017-12-16T03:01:29.385Z,99.99
2017-12-16T03:02:29.393Z,99.99
2017-12-16T03:03:29.320Z,99.99
2017-12-16T03:04:29.308Z,99.99
2017-12-16T03:05:29.248Z,99.99
2017-12-16T03:06:29.323Z,99.99
2017-12-16T03:07:29.191Z,99.99
2017-12-16T03:08:29.228Z,99.99
2017-12-16T03:09:29.120Z,99.99
2017-12-16T03:10:29.145Z,99.99
2017-12-16T03:11:29.060Z,99.99
2017-12-16T03:12:29.049Z,99.99
2017-12-16T03:13:28.990Z,99.99
2017-12-16T03:14:29.069Z,99.99
2017-12-16T03:15:28.925Z,99.99
2017-12-16T03:16:28.979Z,99.99
2017-12-16T03:17:28.857Z,99.99
2017-12-16T03:18:28.889Z,99.99
2017-12-16T03:19:28.796Z,99.99
2017-12-16T03:20:28.806Z,99.99
2017-12-16T03:21:28.736Z,99.99
2017-12-16T03:22:28.825Z,99.99
2017-12-16T03:23:28.669Z,99.99
2017-12-16T03:24:28.722Z,99.99
2017-12-16T03:25:28.605Z,99.99
2017-12-16T03:26:28.635Z,99.99
2017-12-16T03:27:28.536Z,99.99
2017-12-16T03:28:28.546Z,99.99
2017-12-16T03:29:28.471Z,99.99
2017-12-16T03:30:28.458Z,99.99
2017-12-16T03:31:28.404Z,99.99
2017-12-16T03:32:28.478Z,99.99
2017-12-16T03:33:28.338Z,99.99
2017-12-16T03:34:28.386Z,99.99
2017-12-16T03:35:28.276Z,99.99
2017-12-16T03:36:28.294Z,99.99
2017-12-16T03:37:28.212Z,99.99
2017-12-16T03:38:28.207Z,99.99
2017-12-16T03:39:28.151Z,99.99
2017-12-16T03:40:28.221Z,99.99
2017-12-16T03:41:28.081Z,99.99
2017-12-16T03:42:28.139Z,99.99
2017-12-16T03:43:28.014Z,99.99
2017-12-16T03:44:28.049Z,99.99
2017-12-16T03:45:27.953Z,99.99
2017-12-16T03:46:27.959Z,99.99
2017-12-16T03:47:27.887Z,99.99
2017-12-16T03:48:27.868Z,99.99
2017-12-16T03:49:27.827Z,99.99
2017-12-16T03:50:27.882Z,99.99
2017-12-16T03:51:27.756Z,99.99
2017-12-16T03:52:27.797Z,99.99
2017-12-16T03:53:27.693Z,99.99
2017-12-16T03:54:27.706Z,99.99
2017-12-16T03:55:27.624Z,99.99
2017-12-16T03:56:27.616Z,99.99
2017-12-16T03:57:27.555Z,99.99
2017-12-16T03:58:27.630Z,99.99
2017-12-16T03:59:27.497Z,99.99
2017-12-16T04:00:27.540Z,99.99
2017-12-16T04:01:27.427Z,99.99
2017-12-16T04:02:27.452Z,99.99
2017-12-16T04:03:27.371Z,99.99
2017-12-16T04:04:27.364Z,99.99
2017-12-16T04:05:27.298Z,99.99
2017-12-16T04:06:27.376Z,99.99
2017-12-16T04:07:27.234Z,99.99
2017-12-16T04:08:27.291Z,99.99
2017-12-16T04:09:27.164Z,99.99
2017-12-16T04:10:27.200Z,99.99
2017-12-16T04:11:27.103Z,99.99
2017-12-16T04:12:27.111Z,99.99
2017-12-16T04:13:27.044Z,99.99
2017-12-16T04:14:27.023Z,99.99
2017-12-16T04:15:27.005Z,99.99
2017-12-16T04:16:27.065Z,99.99
2017-12-16T04:17:26.919Z,99.99
2017-12-16T04:18:26.948Z,99.99
2017-12-16T04:19:26.842Z,99.99
2017-12-16T04:20:26.860Z,99.99
2017-12-16T04:21:26.778Z,99.99
2017-12-16T04:22:26.771Z,99.99
2017-12-16T04:23:26.713Z,99.99
2017-12-16T04:24:26.784Z,99.99
2017-12-16T04:25:26.648Z,99.99
2017-12-16T04:26:26.695Z,99.99
2017-12-16T04:27:26.589Z,99.99
2017-12-16T04:28:26.607Z,99.99
2017-12-16T04:29:26.516Z,99.99
2017-12-16T04:30:26.519Z,99.99
2017-12-16T04:31:26.453Z,99.99
2017-12-16T04:32:26.532Z,99.99
2017-12-16T04:33:26.388Z,99.99
2017-12-16T04:34:26.444Z,99.99
2017-12-16T04:35:26.330Z,99.99
2017-12-16T04:36:26.357Z,99.99
2017-12-16T04:37:26.261Z,99.99
2017-12-16T04:38:26.268Z,99.99
2017-12-16T04:39:26.198Z,99.99
2017-12-16T04:40:26.179Z,99.99
2017-12-16T04:41:26.130Z,99.99
2017-12-16T04:42:26.193Z,99.99
2017-12-16T04:43:26.061Z,99.99
2017-12-16T04:44:26.105Z,99.99
2017-12-16T04:45:26.006Z,99.99
2017-12-16T04:46:26.016Z,99.99
2017-12-16T04:47:25.935Z,99.99
2017-12-16T04:48:25.927Z,99.99
2017-12-16T04:49:25.869Z,99.99
2017-12-16T04:50:25.941Z,99.99
2017-12-16T04:51:25.801Z,99.99
2017-12-16T04:52:25.851Z,99.99
2017-12-16T04:53:25.740Z,99.99
2017-12-16T04:54:25.763Z,99.99
2017-12-16T04:55:25.676Z,99.99
2017-12-16T04:56:25.675Z,99.99
2017-12-16T04:57:25.615Z,99.99
2017-12-16T04:58:25.688Z,99.99
2017-12-16T04:59:25.546Z,99.99
2017-12-16T05:00:25.597Z,99.99
2017-12-16T05:01:25.482Z,99.99
2017-12-16T05:02:25.511Z,99.99
2017-12-16T05:03:25.414Z,99.99
2017-12-16T05:04:25.425Z,99.99
2017-12-16T05:05:25.355Z,99.99
2017-12-16T05:06:25.334Z,99.99
2017-12-16T05:07:25.285Z,99.99
2017-12-16T05:08:25.347Z,99.99
2017-12-16T05:09:25.217Z,99.99
2017-12-16T05:10:25.263Z,99.99
2017-12-16T05:11:25.174Z,99.99
2017-12-16T05:12:25.171Z,99.99
2017-12-16T05:13:25.093Z,99.99
2017-12-16T05:14:25.084Z,99.99
2017-12-16T05:15:25.033Z,99.99
2017-12-16T05:16:25.100Z,99.99
2017-12-16T05:17:24.962Z,99.99
2017-12-16T05:18:25.008Z,99.99
2017-12-16T05:19:24.898Z,99.99
2017-12-16T05:20:24.923Z,99.99
2017-12-16T05:21:24.831Z,99.99
2017-12-16T05:22:24.831Z,99.99
2017-12-16T05:23:24.775Z,99.99
2017-12-16T05:24:24.848Z,99.99
2017-12-16T05:25:24.700Z,99.99
2017-12-16T05:26:24.757Z,99.99
2017-12-16T05:27:24.636Z,99.99
2017-12-16T05:28:24.669Z,99.99
2017-12-16T05:29:24.573Z,99.99
2017-12-16T05:30:24.584Z,99.99
2017-12-16T05:31:24.527Z,99.99
2017-12-16T05:32:24.601Z,99.99
2017-12-16T05:33:24.444Z,99.99
2017-12-16T05:34:24.508Z,99.99
2017-12-16T05:35:24.382Z,99.99
2017-12-16T05:36:24.423Z,99.99
2017-12-16T05:37:24.314Z,99.99
2017-12-16T05:38:24.334Z,99.99
2017-12-16T05:39:24.249Z,99.99
2017-12-16T05:40:24.249Z,99.99
2017-12-16T05:41:24.179Z,99.99
2017-12-16T05:42:24.253Z,99.99
2017-12-16T05:43:24.118Z,99.99
2017-12-16T05:44:24.168Z,99.99
2017-12-16T05:45:24.053Z,99.99
2017-12-16T05:46:24.075Z,99.99
2017-12-16T05:47:23.987Z,99.99
2017-12-16T05:48:23.986Z,99.99
2017-12-16T05:49:23.921Z,99.99
2017-12-16T05:50:23.999Z,99.99
2017-12-16T05:51:23.873Z,99.99
2017-12-16T05:52:23.914Z,99.99
2017-12-16T05:53:23.791Z,99.99
2017-12-16T05:54:23.824Z,99.99
2017-12-16T05:55:23.725Z,99.99
2017-12-16T05:56:23.735Z,99.99
2017-12-16T05:57:23.663Z,99.99
2017-12-16T05:58:23.653Z,99.99
2017-12-16T05:59:23.598Z,99.99
2017-12-16T06:00:23.666Z,99.99
2017-12-16T06:01:23.535Z,99.99
2017-12-16T06:02:23.571Z,99.99
2017-12-16T06:03:23.464Z,99.99
2017-12-16T06:04:23.481Z,99.99
2017-12-16T06:05:23.400Z,99.99
2017-12-16T06:06:23.396Z,99.99
2017-12-16T06:07:23.332Z,99.99
2017-12-16T06:08:23.407Z,99.99
2017-12-16T06:09:23.269Z,99.99
2017-12-16T06:10:23.319Z,99.99
2017-12-16T06:11:23.208Z,99.99
2017-12-16T06:12:23.240Z,99.99
2017-12-16T06:13:23.138Z,99.99
2017-12-16T06:14:23.143Z,99.99
2017-12-16T06:15:23.074Z,99.99
2017-12-16T06:16:23.152Z,99.99
2017-12-16T06:17:23.004Z,99.99
2017-12-16T06:18:23.071Z,99.99
2017-12-16T06:19:22.945Z,99.99
2017-12-16T06:20:22.983Z,99.99
2017-12-16T06:21:22.874Z,99.99
2017-12-16T06:22:22.889Z,99.99
2017-12-16T06:23:22.811Z,99.99
2017-12-16T06:24:22.803Z,99.99
2017-12-16T06:25:22.741Z,99.99
2017-12-16T06:26:22.865Z,99.99
2017-12-16T06:27:22.683Z,99.99
2017-12-16T06:28:22.730Z,99.99
2017-12-16T06:29:22.616Z,99.99
2017-12-16T06:30:22.637Z,99.99
2017-12-16T06:31:22.549Z,99.99
2017-12-16T06:32:22.552Z,99.99
2017-12-16T06:33:22.482Z,99.99
2017-12-16T06:34:22.567Z,99.99
2017-12-16T06:35:22.415Z,99.99
2017-12-16T06:36:22.479Z,99.99
2017-12-16T06:37:22.357Z,99.99
2017-12-16T06:38:22.387Z,99.99
2017-12-16T06:39:22.286Z,99.99
2017-12-16T06:40:22.299Z,99.99
2017-12-16T06:41:22.221Z,99.99
2017-12-16T06:42:22.211Z,99.99
2017-12-16T06:43:22.156Z,99.99
2017-12-16T06:44:22.220Z,99.99
2017-12-16T06:45:22.089Z,99.99
2017-12-16T06:46:22.134Z,99.99
2017-12-16T06:47:22.021Z,99.99
2017-12-16T06:48:22.046Z,99.99
2017-12-16T06:49:21.958Z,99.99
2017-12-16T06:50:21.959Z,99.99
2017-12-16T06:51:21.890Z,99.99
2017-12-16T06:52:21.980Z,99.99
2017-12-16T06:53:21.828Z,99.99
2017-12-16T06:54:21.945Z,99.99
2017-12-16T06:55:21.766Z,99.99
2017-12-16T06:56:21.799Z,99.99
2017-12-16T06:57:21.696Z,99.99
2017-12-16T06:58:21.706Z,99.99
2017-12-16T06:59:21.630Z,99.99
2017-12-16T07:00:21.621Z,99.99
2017-12-16T07:01:21.562Z,99.99
2017-12-16T07:02:21.637Z,99.99
2017-12-16T07:03:21.497Z,99.99
2017-12-16T07:04:21.542Z,99.99
2017-12-16T07:05:21.461Z,99.99
2017-12-16T07:06:21.455Z,99.99
2017-12-16T07:07:21.367Z,99.99
2017-12-16T07:08:21.364Z,99.99
2017-12-16T07:09:21.297Z,99.99
2017-12-16T07:10:21.380Z,99.99
2017-12-16T07:11:21.237Z,99.99
2017-12-16T07:12:21.288Z,99.99
2017-12-16T07:13:21.173Z,99.99
2017-12-16T07:14:21.204Z,99.99
2017-12-16T07:15:21.103Z,99.99
2017-12-16T07:16:21.112Z,99.99
2017-12-16T07:17:21.039Z,99.99
2017-12-16T07:18:21.027Z,99.99
2017-12-16T07:19:20.975Z,99.99
2017-12-16T07:20:21.037Z,99.99
2017-12-16T07:21:20.907Z,99.99
2017-12-16T07:22:20.947Z,99.99
2017-12-16T07:23:20.842Z,99.99
2017-12-16T07:24:20.862Z,99.99
2017-12-16T07:25:20.774Z,99.99
2017-12-16T07:26:20.774Z,99.99
2017-12-16T07:27:20.712Z,99.99
2017-12-16T07:28:20.788Z,99.99
2017-12-16T07:29:20.643Z,99.99
2017-12-16T07:30:20.698Z,99.99
2017-12-16T07:31:20.578Z,99.99
2017-12-16T07:32:20.611Z,99.99
2017-12-16T07:33:20.510Z,99.99
2017-12-16T07:34:20.517Z,99.99
2017-12-16T07:35:20.443Z,99.99
2017-12-16T07:36:20.434Z,99.99
2017-12-16T07:37:20.373Z,99.99
2017-12-16T07:38:20.442Z,99.99
2017-12-16T07:39:20.311Z,99.99
2017-12-16T07:40:20.358Z,99.99
2017-12-16T07:41:20.246Z,99.99
2017-12-16T07:42:20.269Z,99.99
2017-12-16T07:43:20.181Z,99.99
2017-12-16T07:44:20.178Z,99.99
2017-12-16T07:45:20.112Z,99.99
2017-12-16T07:46:20.089Z,99.99
2017-12-16T07:47:20.051Z,99.99
2017-12-16T07:48:20.103Z,99.99
2017-12-16T07:49:19.979Z,99.99
2017-12-16T07:50:20.015Z,99.99
2017-12-16T07:51:19.915Z,99.99
2017-12-16T07:52:19.926Z,99.99
2017-12-16T07:53:19.846Z,99.99
2017-12-16T07:54:19.840Z,99.99
2017-12-16T07:55:19.783Z,99.99
2017-12-16T07:56:19.868Z,99.99
2017-12-16T07:57:19.717Z,99.99
2017-12-16T07:58:19.771Z,99.99
2017-12-16T07:59:19.645Z,99.99
2017-12-16T08:00:19.676Z,99.99
2017-12-16T08:01:19.583Z,99.99
2017-12-16T08:02:19.586Z,99.99
2017-12-16T08:03:19.516Z,99.99
2017-12-16T08:04:19.498Z,99.99
2017-12-16T08:05:19.451Z,99.99
2017-12-16T08:06:19.515Z,99.99
2017-12-16T08:07:19.382Z,99.99
2017-12-16T08:08:19.422Z,99.99
2017-12-16T08:09:19.313Z,99.99
2017-12-16T08:10:19.335Z,99.99
2017-12-16T08:11:19.251Z,99.99
2017-12-16T08:12:19.246Z,99.99
2017-12-16T08:13:19.179Z,99.99
2017-12-16T08:14:19.256Z,99.99
2017-12-16T08:15:19.131Z,99.99
2017-12-16T08:16:19.173Z,99.99
2017-12-16T08:17:19.052Z,99.99
2017-12-16T08:18:19.091Z,99.99
2017-12-16T08:19:18.982Z,99.99
2017-12-16T08:20:19.047Z,99.99
2017-12-16T08:21:18.920Z,99.99
2017-12-16T08:22:18.921Z,99.99
2017-12-16T08:23:18.854Z,99.99
2017-12-16T08:24:18.917Z,99.99
2017-12-16T08:25:18.788Z,99.99
2017-12-16T08:26:18.833Z,99.99
2017-12-16T08:27:18.718Z,99.99
2017-12-16T08:28:18.748Z,99.99
2017-12-16T08:29:18.656Z,99.99
2017-12-16T08:30:18.660Z,99.99
2017-12-16T08:31:18.591Z,99.99
2017-12-16T08:32:18.562Z,99.99
2017-12-16T08:33:18.519Z,99.99
2017-12-16T08:34:18.584Z,99.99
2017-12-16T08:35:18.459Z,99.99
2017-12-16T08:36:18.498Z,99.99
2017-12-16T08:37:18.390Z,99.99
2017-12-16T08:38:18.398Z,99.99
2017-12-16T08:39:18.325Z,99.99
2017-12-16T08:40:18.325Z,99.99
2017-12-16T08:41:18.257Z,99.99
2017-12-16T08:42:18.351Z,99.99
2017-12-16T08:43:18.191Z,99.99
2017-12-16T08:44:18.246Z,99.99
2017-12-16T08:45:18.128Z,99.99
2017-12-16T08:46:18.156Z,99.99
2017-12-16T08:47:18.066Z,99.99
2017-12-16T08:48:18.063Z,99.99
2017-12-16T08:49:17.991Z,99.99
2017-12-16T08:50:17.977Z,99.99
2017-12-16T08:51:17.930Z,99.99
2017-12-16T08:52:17.992Z,99.99
2017-12-16T08:53:17.861Z,99.99
2017-12-16T08:54:17.898Z,99.99
2017-12-16T08:55:17.807Z,99.99
2017-12-16T08:56:17.818Z,99.99
2017-12-16T08:57:17.729Z,99.99
2017-12-16T08:58:17.726Z,99.99
2017-12-16T08:59:17.670Z,99.99
2017-12-16T09:00:17.738Z,99.99
2017-12-16T09:01:17.606Z,99.99
2017-12-16T09:02:17.658Z,99.99
2017-12-16T09:03:17.534Z,99.99
2017-12-16T09:04:17.562Z,99.99
2017-12-16T09:05:17.468Z,99.99
2017-12-16T09:06:17.472Z,99.99
2017-12-16T09:07:17.407Z,99.99
2017-12-16T09:08:17.485Z,99.99
2017-12-16T09:09:17.338Z,99.99
2017-12-16T09:10:17.397Z,99.99
2017-12-16T09:11:17.272Z,99.99
2017-12-16T09:12:17.308Z,99.99
2017-12-16T09:13:17.212Z,99.99
2017-12-16T09:14:17.230Z,99.99
2017-12-16T09:15:17.145Z,99.99
2017-12-16T09:16:17.136Z,99.99
2017-12-16T09:17:17.085Z,99.99
2017-12-16T09:18:17.146Z,99.99
2017-12-16T09:19:17.018Z,99.99
2017-12-16T09:20:17.083Z,99.99
2017-12-16T09:21:16.954Z,99.99
2017-12-16T09:22:16.966Z,99.99
2017-12-16T09:23:16.889Z,99.99
2017-12-16T09:24:16.882Z,99.99
2017-12-16T09:25:16.818Z,99.99
2017-12-16T09:26:16.891Z,99.99
2017-12-16T09:27:16.754Z,99.99
2017-12-16T09:28:16.832Z,99.99
2017-12-16T09:29:16.693Z,99.99
2017-12-16T09:30:16.713Z,99.99
2017-12-16T09:31:16.629Z,99.99
2017-12-16T09:32:16.626Z,99.99
2017-12-16T09:33:16.566Z,99.99
2017-12-16T09:34:16.638Z,99.99
2017-12-16T09:35:16.500Z,99.99
2017-12-16T09:36:16.551Z,99.99
2017-12-16T09:37:16.436Z,99.99
2017-12-16T09:38:16.461Z,99.99
2017-12-16T09:39:16.379Z,99.99
2017-12-16T09:40:16.374Z,99.99
2017-12-16T09:41:16.307Z,99.99
2017-12-16T09:42:16.386Z,99.99
2017-12-16T09:43:16.244Z,99.99
2017-12-16T09:44:16.295Z,99.99
2017-12-16T09:45:16.180Z,99.99
2017-12-16T09:46:16.209Z,99.99
2017-12-16T09:47:16.121Z,99.99
2017-12-16T09:48:16.122Z,99.99
2017-12-16T09:49:16.064Z,99.99
2017-12-16T09:50:16.140Z,99.99
2017-12-16T09:51:15.989Z,99.99
2017-12-16T09:52:16.045Z,99.99
2017-12-16T09:53:15.930Z,99.99
2017-12-16T09:54:15.957Z,99.99
2017-12-16T09:55:15.864Z,99.99
2017-12-16T09:56:15.832Z,99.99
2017-12-16T09:57:15.800Z,99.99
2017-12-16T09:58:15.779Z,99.99
2017-12-16T09:59:15.734Z,99.99
2017-12-16T10:00:15.796Z,99.99
2017-12-16T10:01:15.669Z,99.99
2017-12-16T10:02:15.705Z,99.99
2017-12-16T10:03:15.607Z,99.99
2017-12-16T10:04:15.619Z,99.99
2017-12-16T10:05:15.551Z,99.99
2017-12-16T10:06:15.529Z,99.99
2017-12-16T10:07:15.487Z,99.54
2017-12-16T10:08:15.544Z,95.94
2017-12-16T10:09:15.421Z,93.94
2017-12-16T10:10:15.459Z,90.89
2017-12-16T10:11:15.358Z,90.19
2017-12-16T10:12:15.368Z,90.61
2017-12-16T10:13:15.305Z,91.94
2017-12-16T10:14:15.380Z,92.85
2017-12-16T10:15:15.241Z,93.41
2017-12-16T10:16:15.293Z,95.41
2017-12-16T10:17:15.189Z,95.79
2017-12-16T10:18:15.204Z,96.12
2017-12-16T10:19:15.125Z,96.31
2017-12-16T10:20:15.116Z,96.97
2017-12-16T10:21:15.063Z,97.26
2017-12-16T10:22:15.130Z,97.64
2017-12-16T10:23:15.012Z,98.11
2017-12-16T10:24:15.048Z,97.50
2017-12-16T10:25:14.951Z,95.75
2017-12-16T10:26:14.952Z,94.60
2017-12-16T10:27:14.901Z,93.94
2017-12-16T10:28:14.966Z,92.18
2017-12-16T10:29:14.847Z,90.56
2017-12-16T10:30:14.879Z,86.65
2017-12-16T10:31:14.787Z,82.79
2017-12-16T10:32:14.789Z,79.21
2017-12-16T10:33:14.728Z,76.90
2017-12-16T10:34:14.804Z,74.27
2017-12-16T10:35:14.681Z,72.87
2017-12-16T10:36:14.715Z,70.92
2017-12-16T10:37:14.630Z,71.15
2017-12-16T10:38:14.728Z,71.28
2017-12-16T10:39:14.583Z,69.95
2017-12-16T10:40:14.638Z,69.76
2017-12-16T10:41:14.547Z,69.89
2017-12-16T10:42:14.550Z,67.84
2017-12-16T10:43:14.501Z,67.75
2017-12-16T10:44:14.568Z,67.65
2017-12-16T10:45:14.456Z,68.04
2017-12-16T10:46:14.477Z,68.79
2017-12-16T10:47:14.422Z,71.12
2017-12-16T10:48:14.490Z,70.58
2017-12-16T10:49:14.382Z,70.98
2017-12-16T10:50:14.401Z,73.14
2017-12-16T10:51:14.343Z,72.89
2017-12-16T10:52:14.414Z,71.82
2017-12-16T10:53:14.305Z,69.82
2017-12-16T10:54:14.326Z,68.80
2017-12-16T10:55:14.268Z,67.18
2017-12-16T10:56:14.339Z,67.62
2017-12-16T10:57:14.240Z,68.61
2017-12-16T10:58:14.248Z,67.02
2017-12-16T10:59:14.210Z,66.63
2017-12-16T11:00:14.265Z,65.58
2017-12-16T11:01:14.165Z,65.84
2017-12-16T11:02:14.176Z,66.89
2017-12-16T11:03:14.131Z,67.18
2017-12-16T11:04:14.188Z,66.41
2017-12-16T11:05:14.099Z,66.28
2017-12-16T11:06:14.099Z,64.66
2017-12-16T11:07:14.072Z,64.18
2017-12-16T11:08:14.114Z,64.59
2017-12-16T11:09:14.054Z,63.99
2017-12-16T11:10:14.132Z,64.12
2017-12-16T11:11:14.005Z,63.73
2017-12-16T11:12:14.039Z,63.48
2017-12-16T11:13:13.973Z,66.56
2017-12-16T11:14:14.053Z,68.70
2017-12-16T11:15:13.943Z,72.44
2017-12-16T11:16:13.968Z,76.08
2017-12-16T11:17:13.912Z,78.96
2017-12-16T11:18:13.981Z,81.90
2017-12-16T11:19:13.881Z,84.28
2017-12-16T11:20:13.892Z,85.19
2017-12-16T11:21:13.840Z,86.71
2017-12-16T11:22:13.907Z,87.19
2017-12-16T11:23:13.804Z,87.62
2017-12-16T11:24:13.814Z,88.09
2017-12-16T11:25:13.763Z,88.76
2017-12-16T11:26:14.855Z,89.23
2017-12-16T11:27:13.748Z,90.00
2017-12-16T11:28:13.742Z,90.00
2017-12-16T11:29:13.679Z,90.28
2017-12-16T11:30:13.755Z,90.33
2017-12-16T11:31:13.630Z,90.33
2017-12-16T11:32:13.605Z,90.61
2017-12-16T11:33:13.591Z,90.85
2017-12-16T11:34:13.578Z,89.23
2017-12-16T11:35:13.542Z,88.19
2017-12-16T11:36:13.590Z,87.71
2017-12-16T11:37:13.564Z,87.66
2017-12-16T11:38:13.502Z,87.80
2017-12-16T11:39:13.444Z,83.45
2017-12-16T11:40:13.524Z,80.54
2017-12-16T11:41:13.400Z,77.00
2017-12-16T11:42:13.426Z,74.69
2017-12-16T11:43:13.356Z,71.57
2017-12-16T11:44:13.439Z,70.65
2017-12-16T11:45:13.309Z,68.55
2017-12-16T11:46:13.354Z,67.40
2017-12-16T11:47:13.264Z,67.21
2017-12-16T11:48:13.267Z,65.58
2017-12-16T11:49:13.228Z,66.83
2017-12-16T11:50:13.293Z,66.63
2017-12-16T11:51:13.177Z,68.10
2017-12-16T11:52:13.189Z,66.25
2017-12-16T11:53:13.145Z,66.06
2017-12-16T11:54:13.206Z,66.13
2017-12-16T11:55:13.100Z,68.38
2017-12-16T11:56:13.114Z,68.32
2017-12-16T11:57:13.061Z,69.27
2017-12-16T11:58:13.135Z,67.65
2017-12-16T11:59:13.023Z,68.54
2017-12-16T12:00:13.043Z,69.27
2017-12-16T12:01:12.988Z,71.33
2017-12-16T12:02:13.054Z,72.28
2017-12-16T12:03:12.952Z,72.13
2017-12-16T12:04:12.966Z,70.73
2017-12-16T12:05:12.913Z,70.20
2017-12-16T12:06:12.982Z,70.52
2017-12-16T12:07:12.880Z,68.93
2017-12-16T12:08:12.900Z,66.50
2017-12-16T12:09:12.842Z,66.63
2017-12-16T12:10:12.910Z,66.13
2017-12-16T12:11:12.806Z,67.11
2017-12-16T12:12:12.815Z,68.41
2017-12-16T12:13:12.771Z,70.03
2017-12-16T12:14:12.798Z,71.01
2017-12-16T12:15:12.733Z,72.88
2017-12-16T12:16:12.746Z,74.94
2017-12-16T12:17:12.696Z,77.03
2017-12-16T12:18:12.760Z,77.64
2017-12-16T12:19:12.667Z,76.92
2017-12-16T12:20:12.670Z,76.20
2017-12-16T12:21:12.654Z,74.61
2017-12-16T12:22:12.687Z,71.81
2017-12-16T12:23:12.587Z,72.32
2017-12-16T12:24:12.595Z,71.62
2017-12-16T12:25:12.557Z,73.14
2017-12-16T12:26:12.607Z,72.48
2017-12-16T12:27:12.518Z,72.28
2017-12-16T12:28:12.520Z,72.86
2017-12-16T12:29:12.476Z,74.42
2017-12-16T12:30:12.532Z,72.03
2017-12-16T12:31:12.443Z,71.08
2017-12-16T12:32:12.444Z,71.08
2017-12-16T12:33:12.401Z,71.18
2017-12-16T12:34:12.461Z,70.89
2017-12-16T12:35:12.390Z,71.04
2017-12-16T12:36:12.369Z,72.96
2017-12-16T12:37:12.333Z,71.72
2017-12-16T12:38:12.398Z,72.34
2017-12-16T12:39:12.296Z,72.88
2017-12-16T12:40:12.293Z,74.73
2017-12-16T12:41:12.261Z,74.69
2017-12-16T12:42:12.306Z,75.68
2017-12-16T12:43:12.224Z,76.73
2017-12-16T12:44:12.225Z,74.54
2017-12-16T12:45:12.192Z,74.63
2017-12-16T12:46:12.237Z,74.25
2017-12-16T12:47:12.162Z,73.58
2017-12-16T12:48:12.252Z,74.73
2017-12-16T12:49:12.119Z,74.69
2017-12-16T12:50:12.163Z,75.74
2017-12-16T12:51:12.083Z,76.75
2017-12-16T12:52:12.176Z,77.42